Time;durP1;ratioP1;P1;durP2;ratioP2;P2;SDS_P1;SDS_P2;PMS_P1;PMS_P2;Temp;Humidity;BMP_temperature;BMP_pressure;BME280_temperature;BME280_humidity;BME280_pressure;Samples;Min_cycle;Max_cycle;Signal;HPM_P1;HPM_P2
2023/09/07 00:02:19;;;;;;;;;;;;;;;;;;4992790;28;19927;-62
2023/09/07 00:04:47;;;;;;;;;;;;;;;;;;4972065;28;19921;-62
2023/09/07 00:07:17;;;;;;;;;;;;;;;;;;4972921;28;19983;-62
2023/09/07 00:09:43;;;;;;;;;;;;;;;;;;4973891;28;19996;-62
2023/09/07 00:12:10;;;;;;;;;;;;;;;;;;4993646;28;20318;-62
2023/09/07 00:14:35;;;;;;;;;;;;;;;;;;4989379;28;19933;-62
2023/09/07 00:17:07;;;;;;;;;;;;;;;;;;4971622;28;20387;-62
2023/09/07 00:22:49;;;;;;;;;;;;;;;;;;4992269;28;20004;-62
2023/09/07 00:25:14;;;;;;;;;;;;;;;;;;4992119;28;21400;-61
2023/09/07 00:27:40;;;;;;;;;;;;;;;;;;4974889;28;19964;-62
2023/09/07 00:30:09;;;;;;;;;;;;;;;;;;4991944;28;19917;-62
2023/09/07 00:32:34;;;;;;;;;;;;;;;;;;4973386;28;19921;-62
2023/09/07 00:38:20;;;;;;;;;;;;;;;;;;4980436;28;19995;-61
2023/09/07 00:40:45;;;;;;;;;;;;;;;;;;4970147;28;19922;-62
2023/09/07 00:43:10;;;;;;;;;;;;;;;;;;4974305;28;19961;-62
2023/09/07 00:45:35;;;;;;;;;;;;;;;;;;4972985;28;19918;-62
2023/09/07 00:48:03;;;;;;;;;;;;;;;;;;4990714;28;19937;-62
2023/09/07 00:50:29;;;;;;;;;;;;;;;;;;4971016;28;19918;-62
2023/09/07 00:52:54;;;;;;;;;;;;;;;;;;4991451;28;19921;-61
2023/09/07 00:55:19;;;;;;;;;;;;;;;;;;4974547;28;19928;-61
2023/09/07 00:57:47;;;;;;;;;;;;;;;;;;4989783;28;19944;-61
2023/09/07 01:00:12;;;;;;;;;;;;;;;;;;4992739;28;20738;-61
2023/09/07 01:02:38;;;;;;;;;;;;;;;;;;4987204;28;19921;-61
2023/09/07 01:05:06;;;;;;;;;;;;;;;;;;4972093;28;19935;-60
2023/09/07 01:07:32;;;;;;;;;;;;;;;;;;4990981;28;19921;-61
2023/09/07 01:09:57;;;;;;;;;;;;;;;;;;4970876;28;20000;-61
2023/09/07 01:12:27;;;;;;;;;;;;;;;;;;4973122;28;19989;-61
2023/09/07 01:14:55;;;;;;;;;;;;;;;;;;4968906;28;19924;-60
2023/09/07 01:17:23;;;;;;;;;;;;;;;;;;4972685;28;20424;-61
2023/09/07 01:19:54;;;;;;;;;;;;;;;;;;4971459;28;20384;-61
2023/09/07 01:22:19;;;;;;;;;;;;;;;;;;4992531;28;19917;-61
2023/09/07 01:24:45;;;;;;;;;;;;;;;;;;4989122;28;19921;-61
2023/09/07 01:27:13;;;;;;;;;;;;;;;;;;4990843;28;19936;-61
2023/09/07 01:29:38;;;;;;;;;;;;;;;;;;4973829;28;21017;-60
2023/09/07 01:32:06;;;;;;;;;;;;;;;;;;4976888;28;19921;-60
2023/09/07 01:34:31;;;;;;;;;;;;;;;;;;4991911;28;19917;-60
2023/09/07 01:36:57;;;;;;;;;;;;;;;;;;4992116;28;20031;-61
2023/09/07 01:39:26;;;;;;;;;;;;;;;;;;4991929;28;19929;-61
2023/09/07 01:41:53;;;;;;;;;;;;;;;;;;4992174;28;20574;-60
2023/09/07 01:44:19;;;;;;;;;;;;;;;;;;4991101;28;19993;-61
2023/09/07 01:46:46;;;;;;;;;;;;;;;;;;4989205;28;19928;-62
2023/09/07 01:49:14;;;;;;;;;;;;;;;;;;4973963;28;19925;-61
2023/09/07 01:51:42;;;;;;;;;;;;;;;;;;4970175;28;19921;-61
2023/09/07 01:54:09;;;;;;;;;;;;;;;;;;4972333;28;20353;-61
2023/09/07 01:56:37;;;;;;;;;;;;;;;;;;4991032;28;20238;-61
2023/09/07 01:59:05;;;;;;;;;;;;;;;;;;4972086;28;19922;-60
2023/09/07 02:01:30;;;;;;;;;;;;;;;;;;4991847;28;20349;-61
2023/09/07 02:07:14;;;;;;;;;;;;;;;;;;4988771;28;19928;-61
2023/09/07 02:09:40;;;;;;;;;;;;;;;;;;4990921;28;19921;-60
2023/09/07 02:12:05;;;;;;;;;;;;;;;;;;4991369;28;19924;-60
2023/09/07 02:14:34;;;;;;;;;;;;;;;;;;4988211;28;19921;-60
2023/09/07 02:17:04;;;;;;;;;;;;;;;;;;4967977;28;20004;-60
2023/09/07 02:19:33;;;;;;;;;;;;;;;;;;4989017;28;19917;-61
2023/09/07 02:22:00;;;;;;;;;;;;;;;;;;4989221;28;19917;-60
2023/09/07 02:24:25;;;;;;;;;;;;;;;;;;4987707;28;19933;-62
2023/09/07 02:26:51;;;;;;;;;;;;;;;;;;4990217;28;19917;-62
2023/09/07 02:29:18;;;;;;;;;;;;;;;;;;4971163;28;19961;-62
2023/09/07 02:31:44;;;;;;;;;;;;;;;;;;4972764;28;20016;-62
2023/09/07 02:34:11;;;;;;;;;;;;;;;;;;4988721;28;20082;-61
2023/09/07 02:36:36;;;;;;;;;;;;;;;;;;4971651;28;20446;-61
2023/09/07 02:39:05;;;;;;;;;;;;;;;;;;4988603;28;19993;-61
2023/09/07 02:41:30;;;;;;;;;;;;;;;;;;4988311;28;20561;-61
2023/09/07 02:43:57;;;;;;;;;;;;;;;;;;4988104;28;20796;-61
2023/09/07 02:46:25;;;;;;;;;;;;;;;;;;4991222;28;20339;-61
2023/09/07 02:48:50;;;;;;;;;;;;;;;;;;4987868;28;20422;-61
2023/09/07 02:51:17;;;;;;;;;;;;;;;;;;4990988;28;20364;-61
2023/09/07 02:53:42;;;;;;;;;;;;;;;;;;4971610;28;19976;-61
2023/09/07 02:56:07;;;;;;;;;;;;;;;;;;4989761;28;20443;-61
2023/09/07 02:58:33;;;;;;;;;;;;;;;;;;4990126;28;20008;-61
2023/09/07 03:00:58;;;;;;;;;;;;;;;;;;4970566;28;19917;-61
2023/09/07 03:03:23;;;;;;;;;;;;;;;;;;4969295;28;20823;-61
2023/09/07 03:05:51;;;;;;;;;;;;;;;;;;4972861;28;19929;-61
2023/09/07 03:08:19;;;;;;;;;;;;;;;;;;4990677;28;19917;-60
2023/09/07 03:10:47;;;;;;;;;;;;;;;;;;4990314;28;20721;-62
2023/09/07 03:13:15;;;;;;;;;;;;;;;;;;4970673;28;20714;-61
2023/09/07 03:15:40;;;;;;;;;;;;;;;;;;4987426;28;19925;-61
2023/09/07 03:18:06;;;;;;;;;;;;;;;;;;4972555;28;19925;-61
2023/09/07 03:20:36;;;;;;;;;;;;;;;;;;4969578;28;21045;-61
2023/09/07 03:23:02;;;;;;;;;;;;;;;;;;4955801;28;20006;-61
2023/09/07 03:25:32;;;;;;;;;;;;;;;;;;4972464;28;19925;-61
2023/09/07 03:28:00;;;;;;;;;;;;;;;;;;4970975;28;19925;-61
2023/09/07 03:30:25;;;;;;;;;;;;;;;;;;4989661;28;20888;-60
2023/09/07 03:32:56;;;;;;;;;;;;;;;;;;4969709;28;19949;-61
2023/09/07 03:35:21;;;;;;;;;;;;;;;;;;4987850;28;19979;-61
2023/09/07 03:37:49;;;;;;;;;;;;;;;;;;4988627;28;20393;-61
2023/09/07 03:40:16;;;;;;;;;;;;;;;;;;4989733;28;20237;-61
2023/09/07 03:42:45;;;;;;;;;;;;;;;;;;4988877;28;19944;-61
2023/09/07 03:45:10;;;;;;;;;;;;;;;;;;4988484;28;19925;-61
2023/09/07 03:47:36;;;;;;;;;;;;;;;;;;4969246;28;20761;-61
2023/09/07 03:50:04;;;;;;;;;;;;;;;;;;4969587;28;19918;-60
2023/09/07 03:52:29;;;;;;;;;;;;;;;;;;4989197;28;19928;-61
2023/09/07 03:54:55;;;;;;;;;;;;;;;;;;4976216;28;20623;-60
2023/09/07 03:57:23;;;;;;;;;;;;;;;;;;4970654;28;19932;-61
2023/09/07 03:59:51;;;;;;;;;;;;;;;;;;4989071;28;20455;-60
2023/09/07 04:02:17;;;;;;;;;;;;;;;;;;4986574;28;19932;-61
2023/09/07 04:04:45;;;;;;;;;;;;;;;;;;4987421;28;20530;-61
2023/09/07 04:07:10;;;;;;;;;;;;;;;;;;4971512;28;19937;-61
2023/09/07 04:09:36;;;;;;;;;;;;;;;;;;4971396;28;19921;-61
2023/09/07 04:12:03;;;;;;;;;;;;;;;;;;4990901;28;20007;-61
2023/09/07 04:14:30;;;;;;;;;;;;;;;;;;4989063;28;19918;-61
2023/09/07 04:16:55;;;;;;;;;;;;;;;;;;4973740;28;19975;-61
2023/09/07 04:19:20;;;;;;;;;;;;;;;;;;4988807;28;19921;-60
2023/09/07 04:21:46;;;;;;;;;;;;;;;;;;4969538;28;19922;-60
2023/09/07 04:24:16;;;;;;;;;;;;;;;;;;4991118;28;20451;-61
2023/09/07 04:26:43;;;;;;;;;;;;;;;;;;4990636;28;20480;-61
2023/09/07 04:29:09;;;;;;;;;;;;;;;;;;4976317;28;19925;-62
2023/09/07 04:31:34;;;;;;;;;;;;;;;;;;4994087;28;19933;-60
2023/09/07 04:34:02;;;;;;;;;;;;;;;;;;4991123;28;20016;-61
2023/09/07 04:36:28;;;;;;;;;;;;;;;;;;4972991;28;20020;-61
2023/09/07 04:38:53;;;;;;;;;;;;;;;;;;4973352;28;19926;-61
2023/09/07 04:41:18;;;;;;;;;;;;;;;;;;4957388;28;20931;-61
2023/09/07 04:43:46;;;;;;;;;;;;;;;;;;4953256;28;19930;-61
2023/09/07 04:46:11;;;;;;;;;;;;;;;;;;4952394;28;19918;-61
2023/09/07 04:48:42;;;;;;;;;;;;;;;;;;4953318;28;19922;-60
2023/09/07 04:51:07;;;;;;;;;;;;;;;;;;4969221;28;19922;-61
2023/09/07 04:53:35;;;;;;;;;;;;;;;;;;4969180;28;19925;-62
2023/09/07 04:56:00;;;;;;;;;;;;;;;;;;4953436;28;19973;-62
2023/09/07 04:58:28;;;;;;;;;;;;;;;;;;4954110;28;19922;-61
2023/09/07 05:00:56;;;;;;;;;;;;;;;;;;4953153;28;20380;-62
2023/09/07 05:03:21;;;;;;;;;;;;;;;;;;4967777;28;19958;-62
2023/09/07 05:05:49;;;;;;;;;;;;;;;;;;4957643;28;20416;-61
2023/09/07 05:08:18;;;;;;;;;;;;;;;;;;4969837;28;20029;-61
2023/09/07 05:14:02;;;;;;;;;;;;;;;;;;4954532;28;21049;-62
2023/09/07 05:16:27;;;;;;;;;;;;;;;;;;4953155;28;19925;-61
2023/09/07 05:18:53;;;;;;;;;;;;;;;;;;4966771;28;20827;-62
2023/09/07 05:24:34;;;;;;;;;;;;;;;;;;4952522;28;19963;-62
2023/09/07 05:27:00;;;;;;;;;;;;;;;;;;4953571;28;20366;-61
2023/09/07 05:29:27;;;;;;;;;;;;;;;;;;4953559;28;20042;-62
2023/09/07 05:35:16;;;;;;;;;;;;;;;;;;4951411;28;20019;-62
2023/09/07 05:37:46;;;;;;;;;;;;;;;;;;4957149;28;19918;-62
2023/09/07 05:40:14;;;;;;;;;;;;;;;;;;4985485;28;19925;-61
2023/09/07 05:42:39;;;;;;;;;;;;;;;;;;4987491;28;21107;-62
2023/09/07 05:45:04;;;;;;;;;;;;;;;;;;4974505;28;19925;-61
2023/09/07 05:47:33;;;;;;;;;;;;;;;;;;4984432;28;19918;-62
2023/09/07 05:49:58;;;;;;;;;;;;;;;;;;4968995;28;20005;-62
2023/09/07 05:52:23;;;;;;;;;;;;;;;;;;4969020;28;20047;-62
2023/09/07 05:54:51;;;;;;;;;;;;;;;;;;4971525;28;20314;-62
2023/09/07 05:57:17;;;;;;;;;;;;;;;;;;4967027;28;20004;-62
2023/09/07 05:59:45;;;;;;;;;;;;;;;;;;4969132;28;19929;-62
2023/09/07 06:02:12;;;;;;;;;;;;;;;;;;4984963;28;19922;-63
2023/09/07 06:04:38;;;;;;;;;;;;;;;;;;4984407;28;20451;-62
2023/09/07 06:07:03;;;;;;;;;;;;;;;;;;4982900;28;19925;-63
2023/09/07 06:09:29;;;;;;;;;;;;;;;;;;4970426;28;19922;-62
2023/09/07 06:15:15;;;;;;;;;;;;;;;;;;4969988;28;20002;-63
2023/09/07 06:17:45;;;;;;;;;;;;;;;;;;4983113;28;19922;-62
2023/09/07 06:20:13;;;;;;;;;;;;;;;;;;4973267;28;20059;-63
2023/09/07 06:22:38;;;;;;;;;;;;;;;;;;4967663;28;20270;-63
2023/09/07 06:25:03;;;;;;;;;;;;;;;;;;4983047;28;19925;-62
2023/09/07 06:30:45;;;;;;;;;;;;;;;;;;4969255;28;20390;-62
2023/09/07 06:33:11;;;;;;;;;;;;;;;;;;4970046;28;20472;-62
2023/09/07 06:35:36;;;;;;;;;;;;;;;;;;4985309;28;19937;-62
2023/09/07 06:38:02;;;;;;;;;;;;;;;;;;4982612;28;19937;-62
2023/09/07 06:40:30;;;;;;;;;;;;;;;;;;4966562;28;20036;-63
2023/09/07 06:46:11;;;;;;;;;;;;;;;;;;4969087;28;19961;-63
2023/09/07 06:48:37;;;;;;;;;;;;;;;;;;4968965;28;20229;-63
2023/09/07 06:51:05;;;;;;;;;;;;;;;;;;4965507;28;20033;-63
2023/09/07 06:53:32;;;;;;;;;;;;;;;;;;4953358;28;19922;-64
2023/09/07 06:56:01;;;;;;;;;;;;;;;;;;4967276;28;19972;-63
2023/09/07 06:58:26;;;;;;;;;;;;;;;;;;4969680;28;19926;-63
2023/09/07 07:00:51;;;;;;;;;;;;;;;;;;4971511;28;20767;-64
2023/09/07 07:03:17;;;;;;;;;;;;;;;;;;4984366;28;20234;-63
2023/09/07 07:05:42;;;;;;;;;;;;;;;;;;4968778;28;19932;-63
2023/09/07 07:08:10;;;;;;;;;;;;;;;;;;4969785;28;19956;-64
2023/09/07 07:10:35;;;;;;;;;;;;;;;;;;4969645;28;19957;-63
2023/09/07 07:13:00;;;;;;;;;;;;;;;;;;4969541;28;20089;-63
2023/09/07 07:15:25;;;;;;;;;;;;;;;;;;4970304;28;19918;-62
2023/09/07 07:17:51;;;;;;;;;;;;;;;;;;4983994;28;19921;-64
2023/09/07 07:20:18;;;;;;;;;;;;;;;;;;4967667;28;19921;-63
2023/09/07 07:22:44;;;;;;;;;;;;;;;;;;4982578;28;20570;-62
2023/09/07 07:25:12;;;;;;;;;;;;;;;;;;4970253;28;20476;-63
2023/09/07 07:27:38;;;;;;;;;;;;;;;;;;4982780;28;19926;-62
2023/09/07 07:30:06;;;;;;;;;;;;;;;;;;4968699;28;19972;-62
2023/09/07 07:32:32;;;;;;;;;;;;;;;;;;4971911;28;20666;-64
2023/09/07 07:35:00;;;;;;;;;;;;;;;;;;4970252;28;19918;-62
2023/09/07 07:37:25;;;;;;;;;;;;;;;;;;4975912;28;19932;-63
2023/09/07 07:39:53;;;;;;;;;;;;;;;;;;4971022;28;19919;-62
2023/09/07 07:45:38;;;;;;;;;;;;;;;;;;4988767;28;19978;-63
2023/09/07 07:48:05;;;;;;;;;;;;;;;;;;4971765;28;19921;-62
2023/09/07 07:50:32;;;;;;;;;;;;;;;;;;4974595;28;20313;-63
2023/09/07 07:53:01;;;;;;;;;;;;;;;;;;4974644;28;19928;-63
2023/09/07 07:55:31;;;;;;;;;;;;;;;;;;4993061;28;19975;-64
2023/09/07 07:57:56;;;;;;;;;;;;;;;;;;4975220;28;19921;-64
2023/09/07 08:00:21;;;;;;;;;;;;;;;;;;4990885;28;19972;-64
2023/09/07 08:02:47;;;;;;;;;;;;;;;;;;4993382;28;20938;-64
2023/09/07 08:05:17;;;;;;;;;;;;;;;;;;4987830;28;19925;-64
2023/09/07 08:07:47;;;;;;;;;;;;;;;;;;4975609;28;20032;-65
2023/09/07 08:13:28;;;;;;;;;;;;;;;;;;4992908;28;20407;-63
2023/09/07 08:15:56;;;;;;;;;;;;;;;;;;4991286;28;20016;-64
2023/09/07 08:18:23;;;;;;;;;;;;;;;;;;4973051;28;19925;-65
2023/09/07 08:20:49;;;;;;;;;;;;;;;;;;4972962;28;20054;-63
2023/09/07 08:23:17;;;;;;;;;;;;;;;;;;4973850;28;19963;-64
2023/09/07 08:25:46;;;;;;;;;;;;;;;;;;4974357;28;19921;-63
2023/09/07 08:28:15;;;;;;;;;;;;;;;;;;4990257;28;19968;-64
2023/09/07 08:30:43;;;;;;;;;;;;;;;;;;4973352;28;20029;-65
2023/09/07 08:33:11;;;;;;;;;;;;;;;;;;4992441;28;19924;-64
2023/09/07 08:35:43;;;;;;;;;;;;;;;;;;4971829;28;20392;-64
2023/09/07 08:38:11;;;;;;;;;;;;;;;;;;4984228;28;20061;-64
2023/09/07 08:40:40;;;;;;;;;;;;;;;;;;4972156;28;19930;-64
2023/09/07 08:46:26;;;;;;;;;;;;;;;;;;4970080;28;19936;-63
2023/09/07 08:49:03;;;;;;;;;;;;;;;;;;4967820;28;19925;-63
2023/09/07 08:51:32;;;;;;;;;;;;;;;;;;4967841;28;19976;-63
2023/09/07 08:53:57;;;;;;;;;;;;;;;;;;4987921;28;19933;-64
2023/09/07 08:56:23;;;;;;;;;;;;;;;;;;4988185;28;19938;-65
2023/09/07 08:58:51;;;;;;;;;;;;;;;;;;4971038;28;19922;-64
2023/09/07 09:01:16;;;;;;;;;;;;;;;;;;4986531;28;19921;-64
2023/09/07 09:03:41;;;;;;;;;;;;;;;;;;4986730;28;20430;-63
2023/09/07 09:06:06;;;;;;;;;;;;;;;;;;4968978;28;21840;-64
2023/09/07 09:08:34;;;;;;;;;;;;;;;;;;4988042;28;20043;-64
2023/09/07 09:11:03;;;;;;;;;;;;;;;;;;4970418;28;20539;-63
2023/09/07 09:13:28;;;;;;;;;;;;;;;;;;4972771;28;19917;-63
2023/09/07 09:15:57;;;;;;;;;;;;;;;;;;4970060;28;20024;-64
2023/09/07 09:18:26;;;;;;;;;;;;;;;;;;4986288;28;20307;-63
2023/09/07 09:20:52;;;;;;;;;;;;;;;;;;4972069;28;19936;-64
2023/09/07 09:23:17;;;;;;;;;;;;;;;;;;4971507;28;20750;-63
2023/09/07 09:25:44;;;;;;;;;;;;;;;;;;4987518;28;21921;-64
2023/09/07 09:28:10;;;;;;;;;;;;;;;;;;4969591;28;19989;-64
2023/09/07 09:30:35;;;;;;;;;;;;;;;;;;4972458;28;19921;-63
2023/09/07 09:33:05;;;;;;;;;;;;;;;;;;4970045;28;19993;-65
2023/09/07 09:35:30;;;;;;;;;;;;;;;;;;4971172;28;19938;-67
2023/09/07 09:37:56;;;;;;;;;;;;;;;;;;4969733;28;19922;-63
2023/09/07 09:40:21;;;;;;;;;;;;;;;;;;4967976;28;20361;-63
2023/09/07 09:42:49;;;;;;;;;;;;;;;;;;4972130;28;19928;-65
2023/09/07 09:45:14;;;;;;;;;;;;;;;;;;4984622;28;19922;-64
2023/09/07 09:47:43;;;;;;;;;;;;;;;;;;4985263;28;20000;-66
2023/09/07 09:50:10;;;;;;;;;;;;;;;;;;4966766;28;20025;-64
2023/09/07 09:52:36;;;;;;;;;;;;;;;;;;4969696;28;19921;-65
2023/09/07 09:55:06;;;;;;;;;;;;;;;;;;4970959;28;20270;-64
2023/09/07 09:57:34;;;;;;;;;;;;;;;;;;4986728;28;19922;-66
2023/09/07 10:00:03;;;;;;;;;;;;;;;;;;4971143;28;19917;-66
2023/09/07 10:02:31;;;;;;;;;;;;;;;;;;4983987;28;19922;-63
2023/09/07 10:04:56;;;;;;;;;;;;;;;;;;4968615;28;19960;-63
2023/09/07 10:07:21;;;;;;;;;;;;;;;;;;4987371;28;20013;-65
2023/09/07 10:09:46;;;;;;;;;;;;;;;;;;4973272;28;20523;-64
2023/09/07 10:12:12;;;;;;;;;;;;;;;;;;4971883;28;19918;-64
2023/09/07 10:17:56;;;;;;;;;;;;;;;;;;4970616;28;19999;-65
2023/09/07 10:20:22;;;;;;;;;;;;;;;;;;4969860;28;20025;-64
2023/09/07 10:22:50;;;;;;;;;;;;;;;;;;4975579;28;19921;-63
2023/09/07 10:25:15;;;;;;;;;;;;;;;;;;4970270;28;19921;-65
2023/09/07 10:27:41;;;;;;;;;;;;;;;;;;4986127;28;20024;-66
2023/09/07 10:30:09;;;;;;;;;;;;;;;;;;4985479;28;19922;-64
2023/09/07 10:32:34;;;;;;;;;;;;;;;;;;4985940;28;19983;-66
2023/09/07 10:34:59;;;;;;;;;;;;;;;;;;4970895;28;19929;-65
2023/09/07 10:37:26;;;;;;;;;;;;;;;;;;4987245;28;19930;-63
2023/09/07 10:39:55;;;;;;;;;;;;;;;;;;4971637;28;20139;-64
2023/09/07 10:42:21;;;;;;;;;;;;;;;;;;4975069;28;19921;-66
2023/09/07 10:44:46;;;;;;;;;;;;;;;;;;4969695;28;19922;-64
2023/09/07 10:47:14;;;;;;;;;;;;;;;;;;4987401;28;19921;-64
2023/09/07 10:49:39;;;;;;;;;;;;;;;;;;4976423;28;19921;-65
2023/09/07 10:52:07;;;;;;;;;;;;;;;;;;4970614;28;19921;-64
2023/09/07 10:54:36;;;;;;;;;;;;;;;;;;4972014;28;20584;-65
2023/09/07 10:57:06;;;;;;;;;;;;;;;;;;4986457;28;20008;-63
2023/09/07 10:59:31;;;;;;;;;;;;;;;;;;4971169;28;20285;-63
2023/09/07 11:02:00;;;;;;;;;;;;;;;;;;4971609;28;19943;-63
2023/09/07 11:04:28;;;;;;;;;;;;;;;;;;4976114;28;19975;-64
2023/09/07 11:06:56;;;;;;;;;;;;;;;;;;4967426;28;19917;-64
2023/09/07 11:09:21;;;;;;;;;;;;;;;;;;4984838;28;19972;-64
2023/09/07 11:11:49;;;;;;;;;;;;;;;;;;4991646;28;20124;-64
2023/09/07 11:14:14;;;;;;;;;;;;;;;;;;4985975;28;20518;-63
2023/09/07 11:16:43;;;;;;;;;;;;;;;;;;4989003;28;20395;-64
2023/09/07 11:19:11;;;;;;;;;;;;;;;;;;4968733;28;20791;-64
2023/09/07 11:21:38;;;;;;;;;;;;;;;;;;4972588;28;22025;-64
2023/09/07 11:24:07;;;;;;;;;;;;;;;;;;4975476;28;19921;-63
2023/09/07 11:26:35;;;;;;;;;;;;;;;;;;4973465;28;19968;-65
2023/09/07 11:29:02;;;;;;;;;;;;;;;;;;4971737;28;19944;-63
2023/09/07 11:31:29;;;;;;;;;;;;;;;;;;4993722;28;19925;-64
2023/09/07 11:33:56;;;;;;;;;;;;;;;;;;4974387;28;19918;-64
2023/09/07 11:36:24;;;;;;;;;;;;;;;;;;4990988;28;19923;-64
2023/09/07 11:38:50;;;;;;;;;;;;;;;;;;4991464;28;19926;-64
2023/09/07 11:41:18;;;;;;;;;;;;;;;;;;4988805;28;19961;-64
2023/09/07 11:43:45;;;;;;;;;;;;;;;;;;4975635;28;20039;-64
2023/09/07 11:46:12;;;;;;;;;;;;;;;;;;4993055;28;21483;-71
2023/09/07 11:48:41;;;;;;;;;;;;;;;;;;4992775;28;19921;-63
2023/09/07 11:51:08;;;;;;;;;;;;;;;;;;4978436;28;19921;-63
2023/09/07 11:53:34;;;;;;;;;;;;;;;;;;4990971;28;19923;-65
2023/09/07 11:55:59;;;;;;;;;;;;;;;;;;4990920;28;19968;-65
2023/09/07 11:58:26;;;;;;;;;;;;;;;;;;4992734;28;20560;-64
2023/09/07 12:00:51;;;;;;;;;;;;;;;;;;4992728;28;19964;-63
2023/09/07 12:03:17;;;;;;;;;;;;;;;;;;4976237;28;20296;-63
2023/09/07 12:08:59;;;;;;;;;;;;;;;;;;4993956;28;19928;-65
2023/09/07 12:11:27;;;;;;;;;;;;;;;;;;4989921;28;19960;-64
2023/09/07 12:13:52;;;;;;;;;;;;;;;;;;4989298;28;20051;-64
2023/09/07 12:16:20;;;;;;;;;;;;;;;;;;4975373;28;20282;-65
2023/09/07 12:18:45;;;;;;;;;;;;;;;;;;4971045;28;19924;-63
2023/09/07 12:21:13;;;;;;;;;;;;;;;;;;4991991;28;19917;-65
2023/09/07 12:23:38;;;;;;;;;;;;;;;;;;4991897;28;19921;-64
2023/09/07 12:26:08;;;;;;;;;;;;;;;;;;4990760;28;19922;-66
2023/09/07 12:28:38;;;;;;;;;;;;;;;;;;4993317;28;20010;-65
2023/09/07 12:31:11;;;;;;;;;;;;;;;;;;4974680;28;19964;-64
2023/09/07 12:33:39;;;;;;;;;;;;;;;;;;4974384;28;19936;-65
2023/09/07 12:36:09;;;;;;;;;;;;;;;;;;4993935;28;19971;-65
2023/09/07 12:38:34;;;;;;;;;;;;;;;;;;4970015;28;19927;-65
2023/09/07 12:41:02;;;;;;;;;;;;;;;;;;4991576;28;19937;-63
2023/09/07 12:43:30;;;;;;;;;;;;;;;;;;4991184;28;19983;-64
2023/09/07 12:45:58;;;;;;;;;;;;;;;;;;4975398;28;19922;-65
2023/09/07 12:48:24;;;;;;;;;;;;;;;;;;4973209;28;19928;-65
2023/09/07 12:50:51;;;;;;;;;;;;;;;;;;4974098;28;19917;-65
2023/09/07 12:53:24;;;;;;;;;;;;;;;;;;4993504;28;19921;-65
2023/09/07 12:55:52;;;;;;;;;;;;;;;;;;4974482;28;19936;-66
2023/09/07 12:58:17;;;;;;;;;;;;;;;;;;4975762;28;20032;-65
2023/09/07 13:00:45;;;;;;;;;;;;;;;;;;4991420;28;19921;-65
2023/09/07 13:03:11;;;;;;;;;;;;;;;;;;4991240;28;19928;-65
2023/09/07 13:05:39;;;;;;;;;;;;;;;;;;4973029;28;19918;-64
2023/09/07 13:08:06;;;;;;;;;;;;;;;;;;4974786;28;19921;-65
2023/09/07 13:10:31;;;;;;;;;;;;;;;;;;4992713;28;20020;-65
2023/09/07 13:13:02;;;;;;;;;;;;;;;;;;4989777;28;20004;-67
2023/09/07 13:15:30;;;;;;;;;;;;;;;;;;4969975;28;19921;-66
2023/09/07 13:17:56;;;;;;;;;;;;;;;;;;4974444;28;19918;-65
2023/09/07 13:20:21;;;;;;;;;;;;;;;;;;4992287;28;20012;-65
2023/09/07 13:22:46;;;;;;;;;;;;;;;;;;4990819;28;20939;-65
2023/09/07 13:25:11;;;;;;;;;;;;;;;;;;4973390;28;19917;-66
2023/09/07 13:27:40;;;;;;;;;;;;;;;;;;4974674;28;20311;-65
2023/09/07 13:30:05;;;;;;;;;;;;;;;;;;4992983;28;19956;-64
2023/09/07 13:32:32;;;;;;;;;;;;;;;;;;4958267;28;20495;-67
2023/09/07 13:34:57;;;;;;;;;;;;;;;;;;4991429;28;20266;-64
2023/09/07 13:37:22;;;;;;;;;;;;;;;;;;4992311;28;19928;-65
2023/09/07 13:39:48;;;;;;;;;;;;;;;;;;4972240;28;20783;-65
2023/09/07 13:42:14;;;;;;;;;;;;;;;;;;4991427;28;19987;-64
2023/09/07 13:44:45;;;;;;;;;;;;;;;;;;4972810;28;19927;-65
2023/09/07 13:47:16;;;;;;;;;;;;;;;;;;4973789;28;20008;-64
2023/09/07 13:49:43;;;;;;;;;;;;;;;;;;4974980;28;19917;-65
2023/09/07 13:52:09;;;;;;;;;;;;;;;;;;4992170;28;20155;-66
2023/09/07 13:54:34;;;;;;;;;;;;;;;;;;4973704;28;20017;-65
2023/09/07 13:57:02;;;;;;;;;;;;;;;;;;4991295;28;19925;-64
2023/09/07 13:59:34;;;;;;;;;;;;;;;;;;4972220;28;19947;-65
2023/09/07 14:02:02;;;;;;;;;;;;;;;;;;4991461;28;19917;-63
2023/09/07 14:04:33;;;;;;;;;;;;;;;;;;4989878;28;19921;-65
2023/09/07 14:07:01;;;;;;;;;;;;;;;;;;4974041;28;20024;-64
2023/09/07 14:09:30;;;;;;;;;;;;;;;;;;4990521;28;19980;-66
2023/09/07 14:11:58;;;;;;;;;;;;;;;;;;4971227;28;19928;-65
2023/09/07 14:14:28;;;;;;;;;;;;;;;;;;4990155;28;19932;-65
2023/09/07 14:16:58;;;;;;;;;;;;;;;;;;4989455;28;21000;-62
2023/09/07 14:19:30;;;;;;;;;;;;;;;;;;4969907;28;19921;-64
2023/09/07 14:21:55;;;;;;;;;;;;;;;;;;4989508;28;19928;-63
2023/09/07 14:24:20;;;;;;;;;;;;;;;;;;4992220;28;19961;-63
2023/09/07 14:26:46;;;;;;;;;;;;;;;;;;4989736;28;19967;-63
2023/09/07 14:29:11;;;;;;;;;;;;;;;;;;4986731;28;19922;-64
2023/09/07 14:31:39;;;;;;;;;;;;;;;;;;4971278;28;19949;-64
2023/09/07 14:34:07;;;;;;;;;;;;;;;;;;4987482;28;20154;-65
2023/09/07 14:36:35;;;;;;;;;;;;;;;;;;4987701;28;19940;-65
2023/09/07 14:39:00;;;;;;;;;;;;;;;;;;4972566;28;19921;-63
2023/09/07 14:41:26;;;;;;;;;;;;;;;;;;4990166;28;21070;-63
2023/09/07 14:43:51;;;;;;;;;;;;;;;;;;4991723;28;19914;-63
2023/09/07 14:46:22;;;;;;;;;;;;;;;;;;4990059;28;19928;-62
2023/09/07 14:48:48;;;;;;;;;;;;;;;;;;4972247;28;19921;-63
2023/09/07 14:51:17;;;;;;;;;;;;;;;;;;4989545;28;19929;-63
2023/09/07 14:53:42;;;;;;;;;;;;;;;;;;4975322;28;19918;-63
2023/09/07 14:56:09;;;;;;;;;;;;;;;;;;4989534;28;20718;-63
2023/09/07 14:58:38;;;;;;;;;;;;;;;;;;4974097;28;20680;-63
2023/09/07 15:01:07;;;;;;;;;;;;;;;;;;4971341;28;19921;-64
2023/09/07 15:03:39;;;;;;;;;;;;;;;;;;4987659;28;20333;-64
2023/09/07 15:06:05;;;;;;;;;;;;;;;;;;4992666;28;19917;-64
2023/09/07 15:08:30;;;;;;;;;;;;;;;;;;4973636;28;19924;-64
2023/09/07 15:10:55;;;;;;;;;;;;;;;;;;4973563;28;20001;-63
2023/09/07 15:13:21;;;;;;;;;;;;;;;;;;4987760;28;20334;-63
2023/09/07 15:15:46;;;;;;;;;;;;;;;;;;4989014;28;19975;-65
2023/09/07 15:18:17;;;;;;;;;;;;;;;;;;4989475;28;19936;-64
2023/09/07 15:20:42;;;;;;;;;;;;;;;;;;4969022;28;19921;-63
2023/09/07 15:23:13;;;;;;;;;;;;;;;;;;4972108;28;19951;-61
2023/09/07 15:25:41;;;;;;;;;;;;;;;;;;4992443;28;19917;-63
2023/09/07 15:28:09;;;;;;;;;;;;;;;;;;4991236;28;19928;-63
2023/09/07 15:30:37;;;;;;;;;;;;;;;;;;4972882;28;19953;-63
2023/09/07 15:33:02;;;;;;;;;;;;;;;;;;4988283;28;19918;-64
2023/09/07 15:35:27;;;;;;;;;;;;;;;;;;4988844;28;20848;-63
2023/09/07 15:37:55;;;;;;;;;;;;;;;;;;4971509;28;19929;-64
2023/09/07 15:40:20;;;;;;;;;;;;;;;;;;4990177;28;19922;-64
2023/09/07 15:42:45;;;;;;;;;;;;;;;;;;4969230;28;20951;-64
2023/09/07 15:45:11;;;;;;;;;;;;;;;;;;4972962;28;19918;-63
2023/09/07 15:47:36;;;;;;;;;;;;;;;;;;4969560;28;20004;-63
2023/09/07 15:50:01;;;;;;;;;;;;;;;;;;4987017;28;19932;-63
2023/09/07 15:52:28;;;;;;;;;;;;;;;;;;4990964;28;19918;-63
2023/09/07 15:54:53;;;;;;;;;;;;;;;;;;4987996;28;20010;-64
2023/09/07 15:57:19;;;;;;;;;;;;;;;;;;4988176;28;20526;-62
2023/09/07 15:59:47;;;;;;;;;;;;;;;;;;4988686;28;19977;-62
2023/09/07 16:02:12;;;;;;;;;;;;;;;;;;4971892;28;20500;-64
2023/09/07 16:04:38;;;;;;;;;;;;;;;;;;4972765;28;19928;-64
2023/09/07 16:07:06;;;;;;;;;;;;;;;;;;4989077;28;19959;-64
2023/09/07 16:09:31;;;;;;;;;;;;;;;;;;4975862;28;21721;-63
2023/09/07 16:11:59;;;;;;;;;;;;;;;;;;4976462;28;19925;-63
2023/09/07 16:14:29;;;;;;;;;;;;;;;;;;4992430;28;20020;-64
2023/09/07 16:16:55;;;;;;;;;;;;;;;;;;4991468;28;19924;-63
2023/09/07 16:19:23;;;;;;;;;;;;;;;;;;4976010;28;19921;-63
2023/09/07 16:21:51;;;;;;;;;;;;;;;;;;4975397;28;20349;-63
2023/09/07 16:24:19;;;;;;;;;;;;;;;;;;4992443;28;19928;-63
2023/09/07 16:26:47;;;;;;;;;;;;;;;;;;4994194;28;19960;-63
2023/09/07 16:29:12;;;;;;;;;;;;;;;;;;4991424;28;19921;-65
2023/09/07 16:31:41;;;;;;;;;;;;;;;;;;4975169;28;19924;-63
2023/09/07 16:34:07;;;;;;;;;;;;;;;;;;4993749;28;19973;-64
2023/09/07 16:36:32;;;;;;;;;;;;;;;;;;4993463;28;19963;-64
2023/09/07 16:39:02;;;;;;;;;;;;;;;;;;4994547;28;19944;-63
2023/09/07 16:41:27;;;;;;;;;;;;;;;;;;4974671;28;19921;-64
2023/09/07 16:43:53;;;;;;;;;;;;;;;;;;4975134;28;19918;-61
2023/09/07 16:46:21;;;;;;;;;;;;;;;;;;4975115;28;20884;-62
2023/09/07 16:48:46;;;;;;;;;;;;;;;;;;4992212;28;20028;-62
2023/09/07 16:51:14;;;;;;;;;;;;;;;;;;4976053;28;19917;-62
2023/09/07 16:53:39;;;;;;;;;;;;;;;;;;4992014;28;21713;-61
2023/09/07 16:56:05;;;;;;;;;;;;;;;;;;4992668;28;19925;-63
2023/09/07 16:58:30;;;;;;;;;;;;;;;;;;4994553;28;19921;-61
2023/09/07 17:00:56;;;;;;;;;;;;;;;;;;4974213;28;19991;-64
2023/09/07 17:03:23;;;;;;;;;;;;;;;;;;4990099;28;19948;-62
2023/09/07 17:05:52;;;;;;;;;;;;;;;;;;4974624;28;20674;-62
2023/09/07 17:08:17;;;;;;;;;;;;;;;;;;4974549;28;20302;-61
2023/09/07 17:10:45;;;;;;;;;;;;;;;;;;4991546;28;19932;-62
2023/09/07 17:13:11;;;;;;;;;;;;;;;;;;4991165;28;19922;-62
2023/09/07 17:15:41;;;;;;;;;;;;;;;;;;4990442;28;19937;-62
2023/09/07 17:18:10;;;;;;;;;;;;;;;;;;4992032;28;19928;-62
2023/09/07 17:20:35;;;;;;;;;;;;;;;;;;4971447;28;19922;-61
2023/09/07 17:23:00;;;;;;;;;;;;;;;;;;4992791;28;19917;-63
2023/09/07 17:25:26;;;;;;;;;;;;;;;;;;4976335;28;19921;-61
2023/09/07 17:27:51;;;;;;;;;;;;;;;;;;4992854;28;20301;-63
2023/09/07 17:30:16;;;;;;;;;;;;;;;;;;4993446;28;19924;-62